createdAt,value
2022-11-17T00:00:35.811Z,12.20
2022-11-17T00:03:03.844Z,13.75
2022-11-17T00:05:31.904Z,13.75
2022-11-17T00:07:59.953Z,13.60
2022-11-17T00:10:28.021Z,14.80
2022-11-17T00:13:15.032Z,11.00
2022-11-17T00:15:44.583Z,12.00
2022-11-17T00:18:30.172Z,14.50
2022-11-17T00:21:15.706Z,17.80
2022-11-17T00:23:50.040Z,13.00
2022-11-17T00:26:19.612Z,11.00
2022-11-17T00:28:49.009Z,13.25
2022-11-17T00:31:34.506Z,16.00
2022-11-17T00:34:08.384Z,13.00
2022-11-17T00:36:38.818Z,12.80
2022-11-17T00:39:07.005Z,14.50
2022-11-17T00:41:35.065Z,12.60
2022-11-17T00:44:04.451Z,12.25
2022-11-17T00:46:32.619Z,15.50
2022-11-17T00:49:00.650Z,11.60
2022-11-17T00:51:28.709Z,11.00
2022-11-17T00:53:56.729Z,16.00
2022-11-17T00:56:25.613Z,12.00
2022-11-17T00:58:53.675Z,13.40
2022-11-17T01:01:23.275Z,14.00
2022-11-17T01:03:51.334Z,13.75
2022-11-17T01:06:20.424Z,15.20
2022-11-17T01:08:48.555Z,12.50
2022-11-17T01:11:17.397Z,14.00
2022-11-17T01:13:45.873Z,16.40
2022-11-17T01:16:15.355Z,18.00
2022-11-17T01:18:45.082Z,16.00
2022-11-17T01:21:14.347Z,14.00
2022-11-17T01:23:43.964Z,15.20
2022-11-17T01:26:13.209Z,13.00
2022-11-17T01:28:41.243Z,13.00
2022-11-17T01:31:10.772Z,17.00
2022-11-17T01:33:38.903Z,16.00
2022-11-17T01:36:09.855Z,14.00
2022-11-17T01:38:37.884Z,14.00
2022-11-17T01:41:09.277Z,17.50
2022-11-17T01:43:42.025Z,16.00
2022-11-17T01:46:19.736Z,13.00
2022-11-17T01:48:47.780Z,11.20
2022-11-17T01:51:17.193Z,16.00
2022-11-17T01:53:47.133Z,11.00
2022-11-17T01:56:18.711Z,12.00
2022-11-17T01:58:49.194Z,12.00
2022-11-17T02:01:17.303Z,13.00
2022-11-17T02:03:45.498Z,17.00
2022-11-17T02:06:16.933Z,13.00
2022-11-17T02:08:45.479Z,12.00
2022-11-17T02:11:15.325Z,16.00
2022-11-17T02:13:43.370Z,12.60
2022-11-17T02:16:12.758Z,13.40
2022-11-17T02:18:40.791Z,12.00
2022-11-17T02:21:37.565Z,11.00
2022-11-17T02:24:13.960Z,11.00
2022-11-17T02:26:59.030Z,13.40
2022-11-17T02:29:30.443Z,17.00
2022-11-17T02:32:04.954Z,11.25
2022-11-17T02:34:36.565Z,13.00
2022-11-17T02:37:12.874Z,12.60
2022-11-17T02:39:42.897Z,13.00
2022-11-17T02:42:12.492Z,14.80
2022-11-17T02:44:42.026Z,10.20
2022-11-17T02:47:11.534Z,10.40
2022-11-17T02:49:40.452Z,16.00
2022-11-17T02:52:08.497Z,13.25
2022-11-17T02:54:36.577Z,11.25
2022-11-17T02:57:04.692Z,12.60
2022-11-17T02:59:34.297Z,10.00
2022-11-17T03:02:18.374Z,9.00
2022-11-17T03:04:49.991Z,12.60
2022-11-17T03:07:26.945Z,9.80
2022-11-17T03:09:59.250Z,12.00
2022-11-17T03:12:30.246Z,12.60
2022-11-17T03:15:02.749Z,9.20
2022-11-17T03:17:33.698Z,12.00
2022-11-17T03:20:04.717Z,12.00
2022-11-17T03:22:34.749Z,12.00
2022-11-17T03:25:03.934Z,17.00
2022-11-17T03:27:33.080Z,12.00
2022-11-17T03:30:01.888Z,11.40
2022-11-17T03:32:31.499Z,13.00
2022-11-17T03:35:02.516Z,13.40
2022-11-17T03:37:31.843Z,12.40
2022-11-17T03:40:00.833Z,12.20
2022-11-17T03:42:29.379Z,13.50
2022-11-17T03:44:59.432Z,11.00
2022-11-17T03:47:27.937Z,13.00
2022-11-17T03:49:57.587Z,11.40
2022-11-17T03:52:27.001Z,11.40
2022-11-17T03:54:55.090Z,12.00
2022-11-17T03:57:27.046Z,12.40
2022-11-17T03:59:56.924Z,12.40
2022-11-17T04:02:25.529Z,14.00
2022-11-17T04:05:08.716Z,14.50
2022-11-17T04:07:40.179Z,14.20
2022-11-17T04:10:09.559Z,16.00
2022-11-17T04:12:55.202Z,13.80
2022-11-17T04:15:40.871Z,13.00
2022-11-17T04:18:08.918Z,13.40
2022-11-17T04:20:37.030Z,15.00
2022-11-17T04:23:11.318Z,12.60
2022-11-17T04:25:57.449Z,11.20
2022-11-17T04:28:40.766Z,12.00
2022-11-17T04:31:10.987Z,12.80
2022-11-17T04:33:39.774Z,15.00
2022-11-17T04:36:08.269Z,12.00
2022-11-17T04:38:37.665Z,16.00
2022-11-17T04:41:24.154Z,12.00
2022-11-17T04:43:52.200Z,12.00
2022-11-17T04:46:20.385Z,18.00
2022-11-17T04:48:48.706Z,14.00
2022-11-17T04:51:16.892Z,12.50
2022-11-17T04:53:46.398Z,13.00
2022-11-17T04:56:14.529Z,11.25
2022-11-17T04:58:42.580Z,12.00
2022-11-17T05:01:13.551Z,13.00
2022-11-17T05:03:42.558Z,12.25
2022-11-17T05:06:10.751Z,12.40
2022-11-17T05:08:38.910Z,17.00
2022-11-17T05:11:26.463Z,13.75
2022-11-17T05:13:54.628Z,14.00
2022-11-17T05:16:40.543Z,14.40
2022-11-17T05:19:09.606Z,14.00
2022-11-17T05:21:37.666Z,12.40
2022-11-17T05:24:04.991Z,14.67
2022-11-17T05:26:35.183Z,12.00
2022-11-17T05:29:03.914Z,14.00
2022-11-17T05:31:32.107Z,11.80
2022-11-17T05:34:00.370Z,13.00
2022-11-17T05:36:28.940Z,12.25
2022-11-17T05:38:57.047Z,16.00
2022-11-17T05:41:25.179Z,13.00
2022-11-17T05:43:54.566Z,11.60
2022-11-17T05:46:22.742Z,14.00
2022-11-17T05:48:51.176Z,13.00
2022-11-17T05:51:19.282Z,16.00
2022-11-17T05:53:47.472Z,13.75
2022-11-17T05:56:24.551Z,13.60
2022-11-17T05:58:55.831Z,13.20
2022-11-17T06:01:23.888Z,16.80
2022-11-17T06:03:54.299Z,14.00
2022-11-17T06:06:22.403Z,15.60
2022-11-17T06:08:50.445Z,14.80
2022-11-17T06:11:19.460Z,14.20
2022-11-17T06:13:47.482Z,14.00
2022-11-17T06:16:17.938Z,13.50
2022-11-17T06:18:47.722Z,13.80
2022-11-17T06:21:16.503Z,16.40
2022-11-17T06:23:44.543Z,13.00
2022-11-17T06:26:12.593Z,16.00
2022-11-17T06:28:41.194Z,17.00
2022-11-17T06:31:09.264Z,16.00
2022-11-17T06:33:38.803Z,18.00
2022-11-17T06:36:07.801Z,13.40
2022-11-17T06:38:36.441Z,19.00
2022-11-17T06:41:08.954Z,16.00
2022-11-17T06:43:39.634Z,14.40
2022-11-17T06:46:07.653Z,18.00
2022-11-17T06:48:36.735Z,20.20
2022-11-17T06:51:06.858Z,19.00
2022-11-17T06:53:35.522Z,17.60
2022-11-17T06:56:06.380Z,17.00
2022-11-17T06:58:34.699Z,18.20
2022-11-17T07:01:04.081Z,17.00
2022-11-17T07:03:32.254Z,16.60
2022-11-17T07:06:01.374Z,16.60
2022-11-17T07:08:30.805Z,18.00
2022-11-17T07:11:03.120Z,17.80
2022-11-17T07:13:31.941Z,16.75
2022-11-17T07:16:03.887Z,19.00
2022-11-17T07:18:31.956Z,19.50
2022-11-17T07:21:02.845Z,22.50
2022-11-17T07:23:32.232Z,22.75
2022-11-17T07:26:00.348Z,15.60
2022-11-17T07:28:28.470Z,18.00
2022-11-17T07:30:56.532Z,16.00
2022-11-17T07:33:24.586Z,18.00
2022-11-17T07:35:52.618Z,25.75
2022-11-17T07:38:20.692Z,17.60
2022-11-17T07:40:50.079Z,21.00
2022-11-17T07:43:18.130Z,21.33
2022-11-17T07:45:46.200Z,19.50
2022-11-17T07:48:14.257Z,16.00
2022-11-17T07:50:42.273Z,22.20
2022-11-17T07:53:10.321Z,24.00
2022-11-17T07:55:38.354Z,20.60
2022-11-17T07:58:07.765Z,18.75
2022-11-17T08:00:35.835Z,16.00
2022-11-17T08:03:04.659Z,18.80
2022-11-17T08:05:34.791Z,22.80
2022-11-17T08:08:05.402Z,20.00
2022-11-17T08:10:34.319Z,16.00
2022-11-17T08:13:02.397Z,17.00
2022-11-17T08:15:31.891Z,17.40
2022-11-17T08:18:01.039Z,19.00
2022-11-17T08:20:29.784Z,17.50
2022-11-17T08:22:57.928Z,17.20
2022-11-17T08:25:26.990Z,16.80
2022-11-17T08:27:56.224Z,21.20
2022-11-17T08:30:24.338Z,19.00
2022-11-17T08:32:54.720Z,22.40
2022-11-17T08:35:23.520Z,20.20
2022-11-17T08:37:51.592Z,22.00
2022-11-17T08:40:19.725Z,29.20
2022-11-17T08:42:47.834Z,23.00
2022-11-17T08:45:15.866Z,24.25
2022-11-17T08:47:43.921Z,22.00
2022-11-17T08:50:13.313Z,19.60
2022-11-17T08:52:41.377Z,19.20
2022-11-17T08:55:10.236Z,18.00
2022-11-17T08:57:38.719Z,19.60
2022-11-17T09:00:07.809Z,24.50
2022-11-17T09:02:35.867Z,24.20
2022-11-17T09:05:03.931Z,19.50
2022-11-17T09:07:35.714Z,24.75
2022-11-17T09:10:04.668Z,20.00
2022-11-17T09:12:32.800Z,24.50
2022-11-17T09:15:00.850Z,19.00
2022-11-17T09:17:28.943Z,18.00
2022-11-17T09:19:56.970Z,20.00
2022-11-17T09:22:25.027Z,20.00
2022-11-17T09:24:54.502Z,22.50
2022-11-17T09:27:22.559Z,21.50
2022-11-17T09:29:50.610Z,21.20
2022-11-17T09:32:19.522Z,22.50
2022-11-17T09:34:47.600Z,25.50
2022-11-17T09:37:15.679Z,18.00
2022-11-17T09:39:44.079Z,20.50
2022-11-17T09:42:15.265Z,23.00
2022-11-17T09:44:45.273Z,20.00
2022-11-17T09:47:20.418Z,20.80
2022-11-17T09:49:58.389Z,19.00
2022-11-17T09:52:28.945Z,20.00
2022-11-17T09:54:58.041Z,27.00
2022-11-17T09:57:31.111Z,29.00
2022-11-17T10:00:08.820Z,18.00
2022-11-17T10:02:36.981Z,19.00
2022-11-17T10:05:05.295Z,22.00
2022-11-17T10:07:33.437Z,19.00
2022-11-17T10:10:02.320Z,19.50
2022-11-17T10:12:34.740Z,17.00
2022-11-17T10:15:10.390Z,20.75
2022-11-17T10:17:39.489Z,17.50
2022-11-17T10:20:16.010Z,26.00
2022-11-17T10:22:44.064Z,18.25
2022-11-17T10:25:25.129Z,23.00
2022-11-17T10:27:54.987Z,20.20
2022-11-17T10:30:24.074Z,23.75
2022-11-17T10:32:52.915Z,16.40
2022-11-17T10:35:21.950Z,22.00
2022-11-17T10:37:55.522Z,18.40
2022-11-17T10:40:25.950Z,19.20
2022-11-17T10:43:21.375Z,22.00
2022-11-17T10:45:50.922Z,21.00
2022-11-17T10:48:24.439Z,25.50
2022-11-17T10:50:53.968Z,15.80
2022-11-17T10:53:24.746Z,18.00
2022-11-17T10:55:57.279Z,21.40
2022-11-17T10:58:27.783Z,27.25
2022-11-17T11:00:57.161Z,23.00
2022-11-17T11:03:25.936Z,19.00
2022-11-17T11:05:58.368Z,23.25
2022-11-17T11:08:27.325Z,24.40
2022-11-17T11:10:55.351Z,18.60
2022-11-17T11:13:29.569Z,18.75
2022-11-17T11:15:57.606Z,17.20
2022-11-17T11:18:25.746Z,17.40
2022-11-17T11:20:59.513Z,18.75
2022-11-17T11:23:36.970Z,21.50
2022-11-17T11:26:12.791Z,17.60
2022-11-17T11:28:51.309Z,18.20
2022-11-17T11:31:25.484Z,22.40
2022-11-17T11:33:56.219Z,21.25
2022-11-17T11:36:27.799Z,18.50
2022-11-17T11:38:59.092Z,19.50
2022-11-17T11:41:37.888Z,23.00
2022-11-17T11:44:23.982Z,20.00
2022-11-17T11:46:54.427Z,17.00
2022-11-17T11:49:28.108Z,14.00
2022-11-17T11:51:56.137Z,15.50
2022-11-17T11:54:28.798Z,15.00
2022-11-17T11:56:56.835Z,15.00
2022-11-17T11:59:32.027Z,14.25
2022-11-17T12:02:05.329Z,14.60
2022-11-17T12:04:38.822Z,14.80
2022-11-17T12:07:11.222Z,17.00
2022-11-17T12:09:45.669Z,16.60
2022-11-17T12:12:15.777Z,20.00
2022-11-17T12:15:09.078Z,13.50
2022-11-17T12:17:37.249Z,14.00
2022-11-17T12:20:10.881Z,16.20
2022-11-17T12:22:57.016Z,16.20
2022-11-17T12:25:27.778Z,18.00
2022-11-17T12:27:55.847Z,20.40
2022-11-17T12:30:53.941Z,20.00
2022-11-17T12:33:22.072Z,15.50
2022-11-17T12:36:18.109Z,17.40
2022-11-17T12:38:46.688Z,23.20
2022-11-17T12:41:14.727Z,20.80
2022-11-17T12:43:43.033Z,19.50
2022-11-17T12:46:30.532Z,25.00
2022-11-17T12:49:02.130Z,20.00
2022-11-17T12:51:34.384Z,18.50
2022-11-17T12:54:07.446Z,18.80
2022-11-17T12:56:54.324Z,19.40
2022-11-17T12:59:42.120Z,20.20
2022-11-17T13:02:19.741Z,26.80
2022-11-17T13:04:49.822Z,19.00
2022-11-17T13:07:20.411Z,20.00
2022-11-17T13:09:51.204Z,20.00
2022-11-17T13:12:22.714Z,19.80
2022-11-17T13:14:54.924Z,17.00
2022-11-17T13:17:27.488Z,20.50
2022-11-17T13:20:02.695Z,17.75
2022-11-17T13:22:30.722Z,19.00
2022-11-17T13:24:58.940Z,19.40
2022-11-17T13:27:27.741Z,18.50
2022-11-17T13:30:14.155Z,19.00
2022-11-17T13:32:43.609Z,15.20
2022-11-17T13:35:22.135Z,18.50
2022-11-17T13:38:06.725Z,19.00
2022-11-17T13:40:35.229Z,17.00
2022-11-17T13:43:03.650Z,22.00
2022-11-17T13:45:31.665Z,21.80
2022-11-17T13:48:01.069Z,19.50
2022-11-17T13:50:37.631Z,17.00
2022-11-17T13:53:23.516Z,19.00
2022-11-17T13:55:51.758Z,19.00
2022-11-17T13:58:27.165Z,19.00
2022-11-17T14:00:57.074Z,20.80
2022-11-17T14:03:37.358Z,18.00
2022-11-17T14:06:06.668Z,17.75
2022-11-17T14:08:35.022Z,17.25
2022-11-17T14:11:07.910Z,19.75
2022-11-17T14:13:39.302Z,24.00
2022-11-17T14:16:16.858Z,17.40
2022-11-17T14:18:53.529Z,17.80
2022-11-17T14:21:21.620Z,18.80
2022-11-17T14:23:49.661Z,16.60
2022-11-17T14:26:19.815Z,18.00
2022-11-17T14:28:48.970Z,16.60
2022-11-17T14:31:16.984Z,13.75
2022-11-17T14:33:46.500Z,18.40
2022-11-17T14:36:15.804Z,17.25
2022-11-17T14:38:44.115Z,14.50
2022-11-17T14:41:12.130Z,18.40
2022-11-17T14:43:40.175Z,19.75
2022-11-17T14:46:08.241Z,14.40
2022-11-17T14:48:36.282Z,16.00
2022-11-17T14:51:05.823Z,14.80
2022-11-17T14:53:36.773Z,16.00
2022-11-17T14:56:08.754Z,18.00
2022-11-17T14:58:36.801Z,21.50
2022-11-17T15:01:11.606Z,21.60
2022-11-17T15:03:39.686Z,16.40
2022-11-17T15:06:12.114Z,13.60
2022-11-17T15:08:44.117Z,17.00
2022-11-17T15:11:15.285Z,15.80
2022-11-17T15:13:43.350Z,16.25
2022-11-17T15:16:11.417Z,17.00
2022-11-17T15:18:39.454Z,17.50
2022-11-17T15:21:09.534Z,18.00
2022-11-17T15:23:38.330Z,17.60
2022-11-17T15:26:06.789Z,21.00
2022-11-17T15:28:35.115Z,18.50
2022-11-17T15:31:09.627Z,17.40
2022-11-17T15:33:39.472Z,21.00
2022-11-17T15:36:09.822Z,18.80
2022-11-17T15:38:38.060Z,22.00
2022-11-17T15:41:06.566Z,18.00
2022-11-17T15:43:35.967Z,23.00
2022-11-17T15:46:04.255Z,22.00
2022-11-17T15:48:33.040Z,19.00
2022-11-17T15:51:02.995Z,21.00
2022-11-17T15:53:32.909Z,21.80
2022-11-17T15:56:04.837Z,28.60
2022-11-17T15:58:33.099Z,25.00
2022-11-17T16:01:11.709Z,21.75
2022-11-17T16:03:40.092Z,28.40
2022-11-17T16:06:08.427Z,26.20
2022-11-17T16:08:37.934Z,19.25
2022-11-17T16:11:06.257Z,26.75
2022-11-17T16:13:34.489Z,28.50
2022-11-17T16:16:02.524Z,22.00
2022-11-17T16:18:30.780Z,20.50
2022-11-17T16:21:04.887Z,21.00
2022-11-17T16:23:39.301Z,19.50
2022-11-17T16:26:07.324Z,18.60
2022-11-17T16:28:35.395Z,27.00
2022-11-17T16:31:13.363Z,23.00
2022-11-17T16:33:41.401Z,18.80
2022-11-17T16:36:10.206Z,19.00
2022-11-17T16:38:49.775Z,24.00
2022-11-17T16:41:28.618Z,26.40
2022-11-17T16:43:56.810Z,27.00
2022-11-17T16:46:26.133Z,21.00
2022-11-17T16:48:54.937Z,28.50
2022-11-17T16:51:23.178Z,20.00
2022-11-17T16:53:56.005Z,22.50
2022-11-17T16:56:24.030Z,42.50
2022-11-17T16:58:52.149Z,23.00
2022-11-17T17:01:21.410Z,25.20
2022-11-17T17:03:49.486Z,23.20
2022-11-17T17:06:18.629Z,26.60
2022-11-17T17:08:46.675Z,27.00
2022-11-17T17:11:16.527Z,34.75
2022-11-17T17:13:44.564Z,23.00
2022-11-17T17:16:13.711Z,28.00
2022-11-17T17:18:41.808Z,20.80
2022-11-17T17:21:12.904Z,22.00
2022-11-17T17:23:40.959Z,26.60
2022-11-17T17:26:09.744Z,22.50
2022-11-17T17:28:40.581Z,24.00
2022-11-17T17:31:08.732Z,32.25
2022-11-17T17:33:37.394Z,28.75
2022-11-17T17:36:06.166Z,25.00
2022-11-17T17:38:34.211Z,28.00
2022-11-17T17:41:06.191Z,22.60
2022-11-17T17:43:34.278Z,31.40
2022-11-17T17:46:03.686Z,30.25
2022-11-17T17:48:31.774Z,27.00
2022-11-17T17:51:02.326Z,31.20
2022-11-17T17:53:30.472Z,27.25
2022-11-17T17:56:01.558Z,26.00
2022-11-17T17:58:29.612Z,29.80
2022-11-17T18:00:57.727Z,27.75
2022-11-17T18:03:27.127Z,27.75
2022-11-17T18:05:59.929Z,21.80
2022-11-17T18:08:27.952Z,30.00
2022-11-17T18:11:00.121Z,25.25
2022-11-17T18:13:31.293Z,27.00
2022-11-17T18:15:59.590Z,32.00
2022-11-17T18:18:29.180Z,29.20
2022-11-17T18:21:00.860Z,37.00
2022-11-17T18:23:30.062Z,29.50
2022-11-17T18:25:58.386Z,33.00
2022-11-17T18:28:26.524Z,28.75
2022-11-17T18:30:54.560Z,32.75
2022-11-17T18:33:22.580Z,28.00
2022-11-17T18:35:51.972Z,49.20
2022-11-17T18:38:19.986Z,25.25
2022-11-17T18:40:48.169Z,28.20
2022-11-17T18:43:16.195Z,27.60
2022-11-17T18:45:44.239Z,31.75
2022-11-17T18:48:12.250Z,25.25
2022-11-17T18:51:04.906Z,25.33
2022-11-17T18:53:31.258Z,23.00
2022-11-17T18:56:03.569Z,27.50
2022-11-17T18:58:31.658Z,23.00
2022-11-17T19:01:06.507Z,22.00
2022-11-17T19:03:34.618Z,27.33
2022-11-17T19:06:02.868Z,22.00
2022-11-17T19:08:32.436Z,25.00
2022-11-17T19:11:05.690Z,28.00
2022-11-17T19:13:34.813Z,29.00
2022-11-17T19:16:05.397Z,30.25
2022-11-17T19:18:33.421Z,27.20
2022-11-17T19:21:05.990Z,26.67
2022-11-17T19:23:36.142Z,24.50
2022-11-17T19:26:05.345Z,27.50
2022-11-17T19:28:33.389Z,24.00
2022-11-17T19:31:02.890Z,21.00
2022-11-17T19:33:32.053Z,23.00
2022-11-17T19:36:04.089Z,24.80
2022-11-17T19:38:33.880Z,22.00
2022-11-17T19:41:06.730Z,22.00
2022-11-17T19:43:35.517Z,20.00
2022-11-17T19:46:06.866Z,28.00
2022-11-17T19:48:34.949Z,26.00
2022-11-17T19:51:05.318Z,26.00
2022-11-17T19:53:33.338Z,26.00
2022-11-17T19:56:01.402Z,30.00
2022-11-17T19:58:30.770Z,27.00
2022-11-17T20:00:59.074Z,22.60
2022-11-17T20:03:27.141Z,24.60
2022-11-17T20:05:55.205Z,25.20
2022-11-17T20:08:23.227Z,22.00
2022-11-17T20:10:51.273Z,27.00
2022-11-17T20:13:19.294Z,28.50
2022-11-17T20:15:48.940Z,25.75
2022-11-17T20:18:16.994Z,30.00
2022-11-17T20:20:45.345Z,28.20
2022-11-17T20:23:13.363Z,28.50
2022-11-17T20:25:41.408Z,26.40
2022-11-17T20:28:09.578Z,29.50
2022-11-17T20:30:38.328Z,29.33
2022-11-17T20:33:07.720Z,25.60
2022-11-17T20:35:36.042Z,26.20
2022-11-17T20:38:04.062Z,24.50
2022-11-17T20:40:32.297Z,25.00
2022-11-17T20:43:00.322Z,21.75
2022-11-17T20:45:28.370Z,24.00
2022-11-17T20:47:56.385Z,22.40
2022-11-17T20:50:25.787Z,32.60
2022-11-17T20:52:53.799Z,22.40
2022-11-17T20:55:21.835Z,24.00
2022-11-17T20:57:49.891Z,25.00
2022-11-17T21:00:18.628Z,25.25
2022-11-17T21:02:46.643Z,25.25
2022-11-17T21:05:14.806Z,27.00
2022-11-17T21:07:44.195Z,30.25
2022-11-17T21:10:12.294Z,31.00
2022-11-17T21:12:40.330Z,26.25
2022-11-17T21:15:09.137Z,29.40
2022-11-17T21:17:54.699Z,30.75
2022-11-17T21:20:22.753Z,28.75
2022-11-17T21:22:52.162Z,26.20
2022-11-17T21:25:20.508Z,28.60
2022-11-17T21:27:48.517Z,27.60
2022-11-17T21:30:17.079Z,26.60
2022-11-17T21:32:45.093Z,32.00
2022-11-17T21:35:13.130Z,25.20
2022-11-17T21:37:41.137Z,27.20
2022-11-17T21:40:11.493Z,29.00
2022-11-17T21:42:39.605Z,33.00
2022-11-17T21:45:09.099Z,28.67
2022-11-17T21:47:37.109Z,24.80
2022-11-17T21:50:05.773Z,36.00
2022-11-17T21:52:33.811Z,37.50
2022-11-17T21:55:01.854Z,40.00
2022-11-17T21:57:31.234Z,34.60
2022-11-17T21:59:59.292Z,27.80
2022-11-17T22:02:27.315Z,34.50
2022-11-17T22:04:55.374Z,31.75
2022-11-17T22:07:23.451Z,33.75
2022-11-17T22:09:51.547Z,42.00
2022-11-17T22:12:19.562Z,51.00
2022-11-17T22:14:49.269Z,37.75
2022-11-17T22:17:17.912Z,26.75
2022-11-17T22:19:45.963Z,42.60
2022-11-17T22:22:14.420Z,49.40
2022-11-17T22:24:46.886Z,41.00
2022-11-17T22:27:17.550Z,36.75
2022-11-17T22:29:45.592Z,38.00
2022-11-17T22:32:14.962Z,42.00
2022-11-17T22:34:42.982Z,39.75
2022-11-17T22:37:11.007Z,34.00
2022-11-17T22:39:39.421Z,38.00
2022-11-17T22:42:07.456Z,35.40
2022-11-17T22:44:35.496Z,27.60
2022-11-17T22:47:03.505Z,30.50
2022-11-17T22:49:32.901Z,34.20
2022-11-17T22:52:08.254Z,31.00
2022-11-17T22:54:36.442Z,33.50
2022-11-17T22:57:04.506Z,29.50
2022-11-17T22:59:32.558Z,36.20
2022-11-17T23:02:00.574Z,29.50
2022-11-17T23:04:28.737Z,34.00
2022-11-17T23:06:58.159Z,36.20
2022-11-17T23:09:26.242Z,37.67
2022-11-17T23:11:54.249Z,31.80
2022-11-17T23:14:22.282Z,31.50
2022-11-17T23:16:50.324Z,33.00
2022-11-17T23:19:18.521Z,28.40
2022-11-17T23:21:46.687Z,37.75
2022-11-17T23:24:16.053Z,35.20
2022-11-17T23:26:44.095Z,38.75
2022-11-17T23:29:12.132Z,29.50
2022-11-17T23:31:40.229Z,32.25
2022-11-17T23:34:09.681Z,37.00
2022-11-17T23:36:37.721Z,37.00
2022-11-17T23:39:05.736Z,38.00
2022-11-17T23:41:35.120Z,32.40
2022-11-17T23:44:03.342Z,39.50
2022-11-17T23:46:31.382Z,28.40
2022-11-17T23:48:59.383Z,34.40
2022-11-17T23:51:29.835Z,33.00
2022-11-17T23:53:58.943Z,36.75
2022-11-17T23:56:27.036Z,34.50
2022-11-17T23:58:56.565Z,34.00
